createdAt,value
2022-10-21T00:00:21.745Z,42.25
2022-10-21T00:00:53.549Z,41.92
2022-10-21T00:01:25.076Z,42.25
2022-10-21T00:01:56.459Z,41.88
2022-10-21T00:02:27.949Z,41.82
2022-10-21T00:02:59.455Z,41.61
2022-10-21T00:03:30.899Z,41.75
2022-10-21T00:04:02.740Z,41.78
2022-10-21T00:04:34.249Z,41.87
2022-10-21T00:05:06.011Z,41.89
2022-10-21T00:05:37.541Z,41.93
2022-10-21T00:06:09.049Z,41.86
2022-10-21T00:06:40.552Z,41.84
2022-10-21T00:07:11.980Z,41.84
2022-10-21T00:07:43.452Z,41.71
2022-10-21T00:08:15.007Z,41.86
2022-10-21T00:08:46.516Z,41.74
2022-10-21T00:09:17.929Z,41.77
2022-10-21T00:09:49.388Z,41.64
2022-10-21T00:10:20.829Z,41.58
2022-10-21T00:10:52.942Z,41.43
2022-10-21T00:11:24.485Z,41.49
2022-10-21T00:11:55.936Z,41.78
2022-10-21T00:12:28.102Z,41.86
2022-10-21T00:12:59.575Z,41.78
2022-10-21T00:13:31.549Z,41.77
2022-10-21T00:14:03.041Z,41.73
2022-10-21T00:14:34.586Z,41.63
2022-10-21T00:15:09.090Z,41.75
2022-10-21T00:15:40.546Z,41.73
2022-10-21T00:16:12.787Z,41.67
2022-10-21T00:16:44.177Z,41.56
2022-10-21T00:17:15.645Z,41.71
2022-10-21T00:17:47.044Z,41.75
2022-10-21T00:18:18.431Z,41.69
2022-10-21T00:18:49.879Z,41.67
2022-10-21T00:19:21.287Z,41.89
2022-10-21T00:19:52.782Z,41.94
2022-10-21T00:20:24.235Z,41.83
2022-10-21T00:20:55.661Z,41.95
2022-10-21T00:21:27.275Z,41.89
2022-10-21T00:21:58.738Z,42.10
2022-10-21T00:22:30.272Z,42.17
2022-10-21T00:23:01.835Z,41.90
2022-10-21T00:23:33.433Z,41.73
2022-10-21T00:24:05.250Z,41.68
2022-10-21T00:24:36.843Z,41.38
2022-10-21T00:25:08.496Z,41.63
2022-10-21T00:25:40.019Z,41.72
2022-10-21T00:26:11.973Z,41.68
2022-10-21T00:26:43.619Z,41.56
2022-10-21T00:27:15.159Z,41.71
2022-10-21T00:27:46.698Z,41.52
2022-10-21T00:28:18.289Z,41.77
2022-10-21T00:28:49.819Z,41.74
2022-10-21T00:29:57.766Z,41.54
2022-10-21T00:30:29.271Z,41.44
2022-10-21T00:31:01.062Z,41.79
2022-10-21T00:31:32.566Z,41.56
2022-10-21T00:32:04.082Z,41.60
2022-10-21T00:32:35.964Z,41.48
2022-10-21T00:33:07.736Z,41.49
2022-10-21T00:33:39.309Z,41.49
2022-10-21T00:34:10.937Z,41.37
2022-10-21T00:34:42.596Z,41.54
2022-10-21T00:35:14.259Z,41.67
2022-10-21T00:35:54.579Z,41.62
2022-10-21T00:36:26.221Z,41.37
2022-10-21T00:36:57.869Z,41.25
2022-10-21T00:37:29.967Z,41.56
2022-10-21T00:38:01.607Z,41.55
2022-10-21T00:38:33.376Z,41.78
2022-10-21T00:39:04.925Z,41.74
2022-10-21T00:39:36.976Z,41.34
2022-10-21T00:40:08.713Z,41.36
2022-10-21T00:40:40.364Z,41.47
2022-10-21T00:41:12.170Z,41.48
2022-10-21T00:41:43.668Z,41.46
2022-10-21T00:42:18.309Z,41.48
2022-10-21T00:42:50.108Z,41.46
2022-10-21T00:43:22.227Z,41.39
2022-10-21T00:44:00.669Z,41.41
2022-10-21T00:44:32.177Z,41.33
2022-10-21T00:45:06.321Z,41.32
2022-10-21T00:45:37.854Z,41.23
2022-10-21T00:46:10.703Z,41.38
2022-10-21T00:46:55.469Z,41.25
2022-10-21T00:47:26.954Z,41.24
2022-10-21T00:47:58.412Z,41.28
2022-10-21T00:48:32.719Z,41.08
2022-10-21T00:49:06.082Z,41.21
2022-10-21T00:49:37.677Z,41.13
2022-10-21T00:50:09.229Z,41.09
2022-10-21T00:50:46.110Z,41.34
2022-10-21T00:51:17.578Z,41.12
2022-10-21T00:51:50.126Z,41.25
2022-10-21T00:52:21.925Z,41.28
2022-10-21T00:52:53.980Z,41.03
2022-10-21T00:53:25.618Z,40.92
2022-10-21T00:53:57.272Z,41.02
2022-10-21T00:54:28.875Z,41.19
2022-10-21T00:55:01.074Z,41.18
2022-10-21T00:55:33.477Z,41.19
2022-10-21T00:56:13.978Z,41.06
2022-10-21T00:56:47.901Z,41.07
2022-10-21T00:57:19.478Z,41.05
2022-10-21T00:57:50.996Z,40.97
2022-10-21T00:58:22.988Z,40.95
2022-10-21T00:58:55.360Z,41.25
2022-10-21T00:59:28.192Z,41.11
2022-10-21T01:00:00.174Z,41.12
2022-10-21T01:00:31.775Z,40.94
2022-10-21T01:01:03.766Z,40.87
2022-10-21T01:01:35.552Z,41.09
2022-10-21T01:02:07.213Z,40.87
2022-10-21T01:02:38.767Z,40.77
2022-10-21T01:03:10.332Z,40.77
2022-10-21T01:03:41.887Z,40.69
2022-10-21T01:04:13.524Z,40.89
2022-10-21T01:04:45.266Z,40.85
2022-10-21T01:05:16.783Z,40.89
2022-10-21T01:06:23.077Z,40.68
2022-10-21T01:06:54.644Z,40.87
2022-10-21T01:07:26.211Z,40.59
2022-10-21T01:07:57.820Z,40.79
2022-10-21T01:08:29.498Z,40.83
2022-10-21T01:09:01.074Z,40.76
2022-10-21T01:09:32.750Z,40.83
2022-10-21T01:10:04.816Z,41.03
2022-10-21T01:10:37.630Z,40.91
2022-10-21T01:11:11.693Z,40.91
2022-10-21T01:11:44.670Z,40.90
2022-10-21T01:12:35.569Z,40.84
2022-10-21T01:13:14.939Z,40.73
2022-10-21T01:13:50.994Z,40.86
2022-10-21T01:14:33.853Z,40.75
2022-10-21T01:15:10.615Z,40.82
2022-10-21T01:15:47.657Z,40.74
2022-10-21T01:16:31.362Z,40.72
2022-10-21T01:17:20.738Z,40.77
2022-10-21T01:17:59.563Z,40.79
2022-10-21T01:18:32.593Z,40.80
2022-10-21T01:19:04.034Z,40.81
2022-10-21T01:19:35.551Z,40.66
2022-10-21T01:20:09.668Z,40.71
2022-10-21T01:20:50.000Z,40.65
2022-10-21T01:21:30.572Z,40.61
2022-10-21T01:22:20.487Z,40.70
2022-10-21T01:23:12.931Z,40.68
2022-10-21T01:23:51.849Z,40.64
2022-10-21T01:24:34.712Z,40.71
2022-10-21T01:25:13.569Z,40.62
2022-10-21T01:25:50.443Z,40.57
2022-10-21T01:26:27.284Z,40.85
2022-10-21T01:27:05.641Z,40.53
2022-10-21T01:27:53.012Z,40.66
2022-10-21T01:28:33.242Z,40.71
2022-10-21T01:29:24.351Z,40.79
2022-10-21T01:30:01.587Z,40.62
2022-10-21T01:30:36.325Z,40.51
2022-10-21T01:31:13.627Z,40.73
2022-10-21T01:32:03.170Z,40.74
2022-10-21T01:32:43.407Z,40.65
2022-10-21T01:33:19.118Z,40.78
2022-10-21T01:34:08.898Z,40.95
2022-10-21T01:34:49.905Z,40.56
2022-10-21T01:35:22.563Z,40.61
2022-10-21T01:35:54.025Z,40.67
2022-10-21T01:36:31.002Z,40.73
2022-10-21T01:37:05.271Z,40.86
2022-10-21T01:37:39.585Z,40.72
2022-10-21T01:38:18.340Z,40.77
2022-10-21T01:38:49.810Z,40.79
2022-10-21T01:39:26.946Z,40.64
2022-10-21T01:40:09.111Z,40.69
2022-10-21T01:40:44.536Z,40.72
2022-10-21T01:41:16.151Z,40.69
2022-10-21T01:42:48.237Z,40.70
2022-10-21T01:43:23.883Z,40.77
2022-10-21T01:43:58.270Z,40.58
2022-10-21T01:44:32.338Z,40.60
2022-10-21T01:45:18.803Z,40.90
2022-10-21T01:45:51.564Z,40.79
2022-10-21T01:46:24.067Z,40.68
2022-10-21T01:46:57.194Z,40.79
2022-10-21T01:47:32.604Z,40.93
2022-10-21T01:48:23.057Z,40.76
2022-10-21T01:49:01.993Z,40.67
2022-10-21T01:49:35.219Z,40.81
2022-10-21T01:50:35.775Z,40.57
2022-10-21T01:51:07.521Z,40.66
2022-10-21T01:51:39.040Z,40.53
2022-10-21T01:52:10.575Z,40.59
2022-10-21T01:52:42.519Z,40.63
2022-10-21T01:53:14.125Z,40.53
2022-10-21T01:53:47.972Z,40.46
2022-10-21T01:54:20.963Z,40.59
2022-10-21T01:54:57.420Z,40.32
2022-10-21T01:55:29.679Z,40.64
2022-10-21T01:56:01.234Z,40.44
2022-10-21T01:56:32.720Z,40.44
2022-10-21T01:57:04.282Z,40.83
2022-10-21T01:57:37.297Z,40.43
2022-10-21T01:58:27.945Z,40.54
2022-10-21T01:58:59.587Z,40.43
2022-10-21T01:59:31.316Z,40.44
2022-10-21T02:00:03.098Z,40.39
2022-10-21T02:00:35.156Z,40.45
2022-10-21T02:01:06.788Z,40.60
2022-10-21T02:01:38.387Z,40.54
2022-10-21T02:02:10.067Z,40.54
2022-10-21T02:02:43.033Z,40.63
2022-10-21T02:03:16.487Z,40.63
2022-10-21T02:03:48.974Z,40.64
2022-10-21T02:04:20.594Z,40.71
2022-10-21T02:04:52.141Z,40.65
2022-10-21T02:05:24.223Z,40.48
2022-10-21T02:05:55.832Z,40.72
2022-10-21T02:06:27.335Z,40.53
2022-10-21T02:06:58.828Z,40.52
2022-10-21T02:07:30.337Z,40.58
2022-10-21T02:08:01.860Z,40.41
2022-10-21T02:08:33.581Z,40.46
2022-10-21T02:09:05.255Z,40.48
2022-10-21T02:09:36.914Z,40.59
2022-10-21T02:10:08.670Z,40.41
2022-10-21T02:10:41.979Z,40.58
2022-10-21T02:11:13.548Z,40.41
2022-10-21T02:11:45.895Z,40.40
2022-10-21T02:12:17.483Z,40.44
2022-10-21T02:12:49.230Z,40.57
2022-10-21T02:13:22.866Z,40.40
2022-10-21T02:13:56.206Z,40.61
2022-10-21T02:14:31.322Z,40.44
2022-10-21T02:15:03.065Z,40.43
2022-10-21T02:15:34.573Z,40.26
2022-10-21T02:16:06.808Z,40.39
2022-10-21T02:16:38.979Z,40.32
2022-10-21T02:17:11.039Z,40.28
2022-10-21T02:17:43.349Z,40.58
2022-10-21T02:18:18.892Z,40.49
2022-10-21T02:18:50.392Z,40.42
2022-10-21T02:19:21.946Z,40.58
2022-10-21T02:19:53.953Z,40.47
2022-10-21T02:20:26.055Z,40.44
2022-10-21T02:20:59.495Z,40.30
2022-10-21T02:21:34.611Z,40.45
2022-10-21T02:22:06.417Z,40.38
2022-10-21T02:22:38.250Z,40.45
2022-10-21T02:23:10.738Z,40.46
2022-10-21T02:23:55.732Z,40.65
2022-10-21T02:24:27.213Z,40.46
2022-10-21T02:25:00.148Z,40.26
2022-10-21T02:25:32.994Z,40.47
2022-10-21T02:26:04.559Z,40.56
2022-10-21T02:26:36.107Z,40.32
2022-10-21T02:27:07.655Z,40.44
2022-10-21T02:27:39.197Z,40.35
2022-10-21T02:28:10.971Z,40.57
2022-10-21T02:28:42.487Z,40.57
2022-10-21T02:29:14.014Z,40.49
2022-10-21T02:29:45.777Z,40.47
2022-10-21T02:30:17.374Z,40.33
2022-10-21T02:30:55.062Z,40.33
2022-10-21T02:31:45.044Z,40.44
2022-10-21T02:32:21.463Z,40.45
2022-10-21T02:33:15.139Z,40.43
2022-10-21T02:33:52.426Z,40.41
2022-10-21T02:34:29.605Z,40.40
2022-10-21T02:35:23.994Z,40.36
2022-10-21T02:35:59.790Z,40.44
2022-10-21T02:36:40.357Z,40.36
2022-10-21T02:37:11.861Z,40.29
2022-10-21T02:37:55.234Z,40.24
2022-10-21T02:38:27.918Z,40.42
2022-10-21T02:39:01.036Z,40.38
2022-10-21T02:39:34.489Z,40.43
2022-10-21T02:40:06.111Z,40.49
2022-10-21T02:40:56.443Z,40.26
2022-10-21T02:41:27.962Z,40.46
2022-10-21T02:41:59.564Z,40.41
2022-10-21T02:42:34.927Z,40.34
2022-10-21T02:43:10.159Z,40.48
2022-10-21T02:43:42.797Z,40.39
2022-10-21T02:44:14.348Z,40.41
2022-10-21T02:44:45.943Z,40.27
2022-10-21T02:45:17.722Z,40.30
2022-10-21T02:45:49.313Z,40.35
2022-10-21T02:46:20.920Z,40.47
2022-10-21T02:46:52.458Z,40.49
2022-10-21T02:47:25.515Z,40.65
2022-10-21T02:47:57.057Z,40.44
2022-10-21T02:48:28.583Z,40.51
2022-10-21T02:49:00.122Z,40.34
2022-10-21T02:49:31.680Z,40.35
2022-10-21T02:50:03.607Z,40.26
2022-10-21T02:50:35.112Z,40.46
2022-10-21T02:51:07.191Z,40.39
2022-10-21T02:51:38.733Z,40.35
2022-10-21T02:52:10.221Z,40.20
2022-10-21T02:52:41.703Z,40.19
2022-10-21T02:53:13.316Z,40.33
2022-10-21T02:53:44.893Z,40.32
2022-10-21T02:54:16.455Z,40.17
2022-10-21T02:54:47.981Z,40.37
2022-10-21T02:55:19.527Z,40.20
2022-10-21T02:55:51.060Z,40.44
2022-10-21T02:56:22.618Z,40.04
2022-10-21T02:56:54.202Z,40.39
2022-10-21T02:57:25.844Z,40.37
2022-10-21T02:57:57.318Z,40.38
2022-10-21T02:58:28.932Z,40.30
2022-10-21T02:59:00.436Z,40.26
2022-10-21T02:59:32.063Z,40.29
2022-10-21T03:00:04.541Z,40.38
2022-10-21T03:00:36.043Z,40.34
2022-10-21T03:01:07.656Z,40.29
2022-10-21T03:01:39.338Z,40.21
2022-10-21T03:02:10.920Z,40.19
2022-10-21T03:02:42.485Z,40.04
2022-10-21T03:03:14.124Z,40.15
2022-10-21T03:03:45.706Z,40.20
2022-10-21T03:04:17.285Z,40.44
2022-10-21T03:04:48.778Z,40.40
2022-10-21T03:05:20.323Z,40.37
2022-10-21T03:05:51.887Z,40.34
2022-10-21T03:06:23.477Z,40.27
2022-10-21T03:06:54.983Z,40.11
2022-10-21T03:07:26.573Z,40.20
2022-10-21T03:07:58.086Z,40.11
2022-10-21T03:08:29.767Z,40.15
2022-10-21T03:09:01.541Z,40.02
2022-10-21T03:09:33.246Z,40.01
2022-10-21T03:10:05.150Z,40.20
2022-10-21T03:10:36.654Z,40.29
2022-10-21T03:11:08.186Z,40.09
2022-10-21T03:11:39.694Z,40.09
2022-10-21T03:12:11.177Z,40.31
2022-10-21T03:12:42.686Z,40.03
2022-10-21T03:13:14.193Z,40.21
2022-10-21T03:13:45.752Z,40.24
2022-10-21T03:14:17.335Z,40.09
2022-10-21T03:14:48.777Z,40.05
2022-10-21T03:15:20.306Z,40.06
2022-10-21T03:15:51.999Z,39.96
2022-10-21T03:16:23.469Z,40.27
2022-10-21T03:16:55.059Z,40.13
2022-10-21T03:17:26.627Z,40.17
2022-10-21T03:17:58.146Z,40.32
2022-10-21T03:18:29.623Z,40.10
2022-10-21T03:19:01.168Z,39.98
2022-10-21T03:19:32.818Z,39.90
2022-10-21T03:20:04.634Z,40.03
2022-10-21T03:20:36.235Z,40.06
2022-10-21T03:21:07.741Z,40.06
2022-10-21T03:21:39.284Z,39.97
2022-10-21T03:22:10.863Z,40.03
2022-10-21T03:22:42.378Z,40.31
2022-10-21T03:23:13.922Z,40.23
2022-10-21T03:23:45.443Z,40.16
2022-10-21T03:24:28.076Z,40.21
2022-10-21T03:25:00.578Z,40.02
2022-10-21T03:25:35.445Z,40.16
2022-10-21T03:26:07.415Z,40.04
2022-10-21T03:26:38.950Z,39.98
2022-10-21T03:27:10.457Z,40.12
2022-10-21T03:27:42.024Z,39.96
2022-10-21T03:28:13.628Z,39.97
2022-10-21T03:28:45.278Z,39.91
2022-10-21T03:29:16.940Z,40.04
2022-10-21T03:29:48.567Z,39.98
2022-10-21T03:30:20.162Z,39.93
2022-10-21T03:30:51.697Z,40.13
2022-10-21T03:31:23.217Z,40.20
2022-10-21T03:31:54.752Z,40.12
2022-10-21T03:32:26.269Z,40.16
2022-10-21T03:32:57.815Z,40.08
2022-10-21T03:33:29.389Z,40.09
2022-10-21T03:34:01.005Z,40.00
2022-10-21T03:34:32.554Z,39.91
2022-10-21T03:35:04.185Z,39.89
2022-10-21T03:35:35.828Z,39.91
2022-10-21T03:36:07.542Z,40.00
2022-10-21T03:36:39.200Z,40.03
2022-10-21T03:37:10.744Z,40.00
2022-10-21T03:37:42.315Z,39.74
2022-10-21T03:38:13.896Z,39.92
2022-10-21T03:38:45.432Z,39.99
2022-10-21T03:39:17.019Z,39.85
2022-10-21T03:39:48.599Z,40.10
2022-10-21T03:40:20.162Z,39.96
2022-10-21T03:40:51.933Z,39.95
2022-10-21T03:41:23.436Z,39.90
2022-10-21T03:41:55.000Z,40.06
2022-10-21T03:42:27.281Z,39.85
2022-10-21T03:42:58.949Z,39.97
2022-10-21T03:43:30.473Z,39.94
2022-10-21T03:44:02.035Z,39.87
2022-10-21T03:44:33.696Z,40.00
2022-10-21T03:45:05.376Z,39.96
2022-10-21T03:45:36.905Z,39.81
2022-10-21T03:46:08.543Z,39.94
2022-10-21T03:46:40.089Z,39.88
2022-10-21T03:47:11.652Z,39.96
2022-10-21T03:47:43.142Z,39.96
2022-10-21T03:48:16.969Z,39.75
2022-10-21T03:48:48.535Z,39.74
2022-10-21T03:49:21.591Z,39.78
2022-10-21T03:49:53.230Z,39.73
2022-10-21T03:50:26.670Z,39.87
2022-10-21T03:50:58.592Z,39.81
2022-10-21T03:51:30.459Z,39.95
2022-10-21T03:52:02.221Z,39.84
2022-10-21T03:52:34.498Z,39.97
2022-10-21T03:53:13.766Z,40.04
2022-10-21T03:53:50.441Z,39.95
2022-10-21T03:54:21.954Z,39.70
2022-10-21T03:54:53.579Z,39.77
2022-10-21T03:55:25.256Z,39.87
2022-10-21T03:55:56.902Z,39.84
2022-10-21T03:56:28.493Z,39.77
2022-10-21T03:57:00.119Z,39.86
2022-10-21T03:57:31.654Z,39.75
2022-10-21T03:58:03.187Z,39.73
2022-10-21T03:58:34.745Z,39.82
2022-10-21T03:59:06.305Z,39.80
2022-10-21T03:59:37.778Z,39.72
2022-10-21T04:00:09.680Z,39.92
2022-10-21T04:00:41.306Z,39.59
2022-10-21T04:01:13.076Z,39.79
2022-10-21T04:01:44.810Z,39.78
2022-10-21T04:02:16.411Z,39.68
2022-10-21T04:02:48.041Z,39.68
2022-10-21T04:03:19.613Z,39.98
2022-10-21T04:03:51.252Z,39.85
2022-10-21T04:04:22.711Z,39.79
2022-10-21T04:04:54.219Z,39.74
2022-10-21T04:05:25.806Z,40.02
2022-10-21T04:05:57.397Z,39.70
2022-10-21T04:06:29.006Z,39.99
2022-10-21T04:07:00.725Z,39.96
2022-10-21T04:07:32.356Z,39.81
2022-10-21T04:08:03.966Z,39.91
2022-10-21T04:08:35.734Z,39.89
2022-10-21T04:09:07.423Z,40.04
2022-10-21T04:09:39.019Z,39.90
2022-10-21T04:10:10.720Z,39.69
2022-10-21T04:10:42.483Z,39.75
2022-10-21T04:11:14.030Z,39.79
2022-10-21T04:11:45.602Z,39.86
2022-10-21T04:12:17.212Z,39.91
2022-10-21T04:12:48.823Z,39.76
2022-10-21T04:13:20.425Z,39.85
2022-10-21T04:13:51.944Z,39.72
2022-10-21T04:14:23.554Z,39.84
2022-10-21T04:14:55.169Z,39.65
2022-10-21T04:15:26.767Z,39.70
2022-10-21T04:15:59.031Z,39.59
2022-10-21T04:16:30.563Z,39.69
2022-10-21T04:17:07.732Z,39.68
2022-10-21T04:17:40.088Z,39.68
2022-10-21T04:18:11.673Z,39.82
2022-10-21T04:18:43.275Z,39.75
2022-10-21T04:19:17.654Z,39.65
2022-10-21T04:19:49.201Z,39.72
2022-10-21T04:20:20.769Z,39.88
2022-10-21T04:20:52.318Z,39.75
2022-10-21T04:22:00.285Z,39.75
2022-10-21T04:22:31.841Z,39.66
2022-10-21T04:23:03.566Z,39.48
2022-10-21T04:23:35.306Z,39.66
2022-10-21T04:24:06.958Z,39.74
2022-10-21T04:24:38.555Z,39.61
2022-10-21T04:25:10.137Z,39.77
2022-10-21T04:25:43.814Z,39.79
2022-10-21T04:26:15.364Z,39.95
2022-10-21T04:26:46.883Z,39.77
2022-10-21T04:27:18.446Z,39.87
2022-10-21T04:27:50.017Z,39.79
2022-10-21T04:28:21.558Z,39.56
2022-10-21T04:28:53.070Z,39.72
2022-10-21T04:29:24.614Z,39.57
2022-10-21T04:29:56.234Z,39.62
2022-10-21T04:30:27.843Z,39.63
2022-10-21T04:30:59.417Z,39.91
2022-10-21T04:31:32.243Z,39.68
2022-10-21T04:32:03.969Z,39.87
2022-10-21T04:32:35.650Z,39.89
2022-10-21T04:33:07.344Z,39.80
2022-10-21T04:33:38.872Z,39.90
2022-10-21T04:34:10.570Z,39.63
2022-10-21T04:34:42.100Z,39.68
2022-10-21T04:35:13.681Z,39.62
2022-10-21T04:35:45.180Z,39.65
2022-10-21T04:36:16.795Z,39.56
2022-10-21T04:36:48.332Z,39.65
2022-10-21T04:37:19.931Z,39.64
2022-10-21T04:37:51.498Z,39.77
2022-10-21T04:38:23.179Z,39.84
2022-10-21T04:38:54.754Z,39.66
2022-10-21T04:39:26.326Z,39.67
2022-10-21T04:39:57.979Z,39.70
2022-10-21T04:40:29.524Z,39.80
2022-10-21T04:41:01.860Z,39.65
2022-10-21T04:41:33.448Z,39.79
2022-10-21T04:42:05.079Z,39.73
2022-10-21T04:42:36.544Z,39.50
2022-10-21T04:43:08.171Z,39.80
2022-10-21T04:43:39.668Z,39.77
2022-10-21T04:44:11.184Z,39.81
2022-10-21T04:44:42.875Z,39.85
2022-10-21T04:45:14.458Z,39.57
2022-10-21T04:45:46.071Z,39.66
2022-10-21T04:46:17.721Z,39.66
2022-10-21T04:46:49.305Z,39.76
2022-10-21T04:47:20.834Z,39.87
2022-10-21T04:47:52.459Z,39.56
2022-10-21T04:48:24.071Z,39.68
2022-10-21T04:48:55.722Z,39.78
2022-10-21T04:49:27.334Z,39.60
2022-10-21T04:49:59.090Z,39.70
2022-10-21T04:50:30.773Z,39.70
2022-10-21T04:51:02.470Z,39.87
2022-10-21T04:51:34.071Z,39.83
2022-10-21T04:52:05.638Z,39.62
2022-10-21T04:52:37.855Z,39.71
2022-10-21T04:53:09.739Z,39.69
2022-10-21T04:53:41.295Z,39.66
2022-10-21T04:54:12.811Z,39.52
2022-10-21T04:54:44.407Z,39.78
2022-10-21T04:55:16.042Z,39.88
2022-10-21T04:55:51.061Z,39.82
2022-10-21T04:56:22.690Z,39.80
2022-10-21T04:56:54.257Z,39.76
2022-10-21T04:57:25.779Z,39.82
2022-10-21T04:57:57.366Z,39.80
2022-10-21T04:58:28.934Z,39.50
2022-10-21T04:59:00.459Z,39.79
2022-10-21T04:59:32.059Z,39.72
2022-10-21T05:00:04.426Z,39.81
2022-10-21T05:00:36.205Z,39.72
2022-10-21T05:01:08.112Z,39.65
2022-10-21T05:01:39.744Z,39.83
2022-10-21T05:02:11.359Z,39.93
2022-10-21T05:02:42.920Z,39.86
2022-10-21T05:03:14.472Z,39.96
2022-10-21T05:03:45.956Z,39.77
2022-10-21T05:04:17.487Z,39.73
2022-10-21T05:04:49.012Z,39.87
2022-10-21T05:05:20.590Z,39.94
2022-10-21T05:05:52.276Z,39.75
2022-10-21T05:06:23.770Z,39.91
2022-10-21T05:06:55.296Z,39.79
2022-10-21T05:07:26.856Z,40.00
2022-10-21T05:07:58.420Z,39.86
2022-10-21T05:08:30.124Z,39.71
2022-10-21T05:09:01.783Z,39.81
2022-10-21T05:09:33.572Z,39.84
2022-10-21T05:10:05.357Z,39.81
2022-10-21T05:10:36.955Z,39.80
2022-10-21T05:11:08.566Z,39.78
2022-10-21T05:11:40.160Z,39.96
2022-10-21T05:12:11.737Z,39.89
2022-10-21T05:12:43.291Z,40.07
2022-10-21T05:13:14.915Z,39.92
2022-10-21T05:13:46.444Z,39.87
2022-10-21T05:14:21.705Z,39.84
2022-10-21T05:14:54.377Z,39.84
2022-10-21T05:15:26.162Z,40.10
2022-10-21T05:15:59.395Z,39.99
2022-10-21T05:16:30.956Z,40.06
2022-10-21T05:17:02.612Z,40.07
2022-10-21T05:17:34.128Z,39.90
2022-10-21T05:18:05.709Z,40.25
2022-10-21T05:18:37.169Z,40.07
2022-10-21T05:19:08.820Z,40.02
2022-10-21T05:19:40.375Z,40.08
2022-10-21T05:20:11.993Z,40.03
2022-10-21T05:20:43.560Z,40.01
2022-10-21T05:21:15.130Z,40.06
2022-10-21T05:21:46.709Z,40.10
2022-10-21T05:22:18.199Z,39.90
2022-10-21T05:22:49.723Z,39.88
2022-10-21T05:23:21.336Z,39.95
2022-10-21T05:23:52.842Z,39.94
2022-10-21T05:24:24.451Z,39.94
2022-10-21T05:24:55.991Z,39.90
2022-10-21T05:25:31.791Z,40.01
2022-10-21T05:26:05.708Z,39.88
2022-10-21T05:26:37.366Z,40.06
2022-10-21T05:27:08.958Z,40.16
2022-10-21T05:27:40.619Z,40.14
2022-10-21T05:28:12.352Z,40.14
2022-10-21T05:28:43.987Z,40.10
2022-10-21T05:29:15.601Z,39.95
2022-10-21T05:29:47.142Z,40.07
2022-10-21T05:30:18.665Z,40.06
2022-10-21T05:30:50.249Z,39.90
2022-10-21T05:31:21.882Z,39.87
2022-10-21T05:31:53.493Z,39.77
2022-10-21T05:32:25.017Z,39.92
2022-10-21T05:32:56.657Z,40.04
2022-10-21T05:33:28.225Z,40.01
2022-10-21T05:33:59.776Z,40.06
2022-10-21T05:34:31.356Z,39.92
2022-10-21T05:35:03.233Z,40.07
2022-10-21T05:35:34.849Z,40.13
2022-10-21T05:36:06.577Z,40.16
2022-10-21T05:36:38.111Z,40.05
2022-10-21T05:37:09.608Z,40.09
2022-10-21T05:37:41.186Z,40.05
2022-10-21T05:38:12.808Z,40.10
2022-10-21T05:38:44.395Z,40.15
2022-10-21T05:39:15.975Z,39.96
2022-10-21T05:39:47.604Z,40.21
2022-10-21T05:40:19.112Z,40.19
2022-10-21T05:40:50.645Z,40.22
2022-10-21T05:41:22.247Z,40.17
2022-10-21T05:41:53.752Z,39.99
2022-10-21T05:42:25.339Z,40.09
2022-10-21T05:42:56.894Z,40.09
2022-10-21T05:43:28.429Z,40.22
2022-10-21T05:43:59.945Z,40.17
2022-10-21T05:44:31.519Z,40.21
2022-10-21T05:45:03.233Z,40.00
2022-10-21T05:45:34.809Z,40.03
2022-10-21T05:46:06.380Z,40.00
2022-10-21T05:46:37.897Z,40.01
2022-10-21T05:47:09.462Z,40.28
2022-10-21T05:47:41.039Z,40.08
2022-10-21T05:48:17.733Z,40.06
2022-10-21T05:48:49.611Z,40.10
2022-10-21T05:49:21.221Z,39.98
2022-10-21T05:49:52.747Z,40.03
2022-10-21T05:50:24.271Z,40.05
2022-10-21T05:50:55.863Z,40.10
2022-10-21T05:51:27.396Z,39.98
2022-10-21T05:51:58.979Z,40.07
2022-10-21T05:52:30.526Z,39.98
2022-10-21T05:53:02.073Z,40.09
2022-10-21T05:53:33.763Z,39.83
2022-10-21T05:54:05.311Z,40.04
2022-10-21T05:54:36.927Z,40.10
2022-10-21T05:55:08.825Z,40.14
2022-10-21T05:55:40.329Z,40.12
2022-10-21T05:56:12.012Z,40.33
2022-10-21T05:56:43.556Z,40.39
2022-10-21T05:57:15.181Z,40.31
2022-10-21T05:57:46.779Z,40.12
2022-10-21T05:58:18.335Z,40.12
2022-10-21T05:58:49.991Z,40.17
2022-10-21T05:59:21.506Z,40.21
2022-10-21T05:59:53.044Z,40.22
2022-10-21T06:00:24.603Z,39.91
2022-10-21T06:00:56.266Z,39.86
2022-10-21T06:01:27.874Z,40.07
2022-10-21T06:01:59.419Z,40.15
2022-10-21T06:02:30.933Z,40.20
2022-10-21T06:03:02.570Z,40.16
2022-10-21T06:03:34.093Z,40.13
2022-10-21T06:04:05.886Z,40.15
2022-10-21T06:04:38.755Z,40.10
2022-10-21T06:05:10.521Z,40.16
2022-10-21T06:05:42.067Z,40.16
2022-10-21T06:06:13.606Z,40.14
2022-10-21T06:06:45.158Z,40.03
2022-10-21T06:07:16.792Z,40.18
2022-10-21T06:07:48.465Z,40.26
2022-10-21T06:08:20.083Z,40.31
2022-10-21T06:08:51.810Z,40.15
2022-10-21T06:09:23.504Z,40.10
2022-10-21T06:09:55.295Z,40.17
2022-10-21T06:10:29.094Z,40.25
2022-10-21T06:11:04.905Z,40.03
2022-10-21T06:11:36.519Z,40.14
2022-10-21T06:12:08.141Z,40.03
2022-10-21T06:12:39.743Z,40.07
2022-10-21T06:13:11.328Z,40.16
2022-10-21T06:13:42.847Z,40.16
2022-10-21T06:14:14.348Z,40.25
2022-10-21T06:14:45.961Z,40.04
2022-10-21T06:15:17.548Z,40.17
2022-10-21T06:15:51.140Z,40.01
2022-10-21T06:16:22.781Z,40.21
2022-10-21T06:16:54.381Z,40.07
2022-10-21T06:17:25.908Z,39.96
2022-10-21T06:17:57.452Z,40.07
2022-10-21T06:18:29.164Z,40.07
2022-10-21T06:19:01.047Z,39.94
2022-10-21T06:19:32.604Z,39.99
2022-10-21T06:20:04.423Z,40.07
2022-10-21T06:20:36.177Z,40.20
2022-10-21T06:21:07.742Z,40.19
2022-10-21T06:21:39.290Z,40.25
2022-10-21T06:22:10.791Z,40.13
2022-10-21T06:22:42.385Z,40.03
2022-10-21T06:23:14.008Z,40.18
2022-10-21T06:23:45.587Z,40.07
2022-10-21T06:24:17.142Z,40.12
2022-10-21T06:24:48.688Z,40.06
2022-10-21T06:25:20.229Z,40.14
2022-10-21T06:25:58.420Z,40.03
2022-10-21T06:26:32.048Z,39.95
2022-10-21T06:27:06.233Z,40.02
2022-10-21T06:27:37.905Z,39.99
2022-10-21T06:28:09.598Z,40.18
2022-10-21T06:28:41.561Z,40.14
2022-10-21T06:29:13.214Z,40.07
2022-10-21T06:29:44.787Z,39.98
2022-10-21T06:30:16.258Z,40.12
2022-10-21T06:30:47.795Z,40.01
2022-10-21T06:31:19.701Z,40.00
2022-10-21T06:31:51.231Z,40.05
2022-10-21T06:32:22.758Z,39.91
2022-10-21T06:32:54.361Z,40.01
2022-10-21T06:33:27.346Z,40.02
2022-10-21T06:33:59.133Z,40.00
2022-10-21T06:34:30.707Z,40.00
2022-10-21T06:35:02.359Z,40.11
2022-10-21T06:35:34.125Z,39.79
2022-10-21T06:36:05.806Z,40.08
2022-10-21T06:36:37.432Z,39.99
2022-10-21T06:37:08.988Z,39.98
2022-10-21T06:37:40.880Z,40.05
2022-10-21T06:38:12.567Z,39.89
2022-10-21T06:38:44.206Z,40.04
2022-10-21T06:39:15.873Z,40.03
2022-10-21T06:39:47.449Z,39.84
2022-10-21T06:40:19.006Z,40.09
2022-10-21T06:40:50.526Z,39.99
2022-10-21T06:41:22.174Z,40.03
2022-10-21T06:41:53.780Z,39.79
2022-10-21T06:42:25.291Z,40.00
2022-10-21T06:42:56.817Z,39.83
2022-10-21T06:43:28.448Z,39.96
2022-10-21T06:44:00.059Z,39.97
2022-10-21T06:44:31.622Z,40.07
2022-10-21T06:45:03.315Z,39.90
2022-10-21T06:45:34.870Z,39.91
2022-10-21T06:46:07.125Z,40.09
2022-10-21T06:46:38.699Z,40.10
2022-10-21T06:47:10.298Z,39.97
2022-10-21T06:47:42.181Z,40.08
2022-10-21T06:48:13.892Z,39.99
2022-10-21T06:48:45.378Z,39.90
2022-10-21T06:49:16.906Z,40.03
2022-10-21T06:49:48.441Z,40.03
2022-10-21T06:50:19.954Z,40.04
2022-10-21T06:50:55.771Z,40.08
2022-10-21T06:51:27.363Z,40.08
2022-10-21T06:51:58.842Z,39.82
2022-10-21T06:52:30.477Z,40.03
2022-10-21T06:53:02.010Z,39.80
2022-10-21T06:53:36.475Z,39.88
2022-10-21T06:54:10.604Z,39.87
2022-10-21T06:54:42.179Z,40.00
2022-10-21T06:55:13.719Z,39.96
2022-10-21T06:55:45.219Z,39.99
2022-10-21T06:56:17.037Z,39.88
2022-10-21T06:56:48.662Z,39.98
2022-10-21T06:57:20.250Z,39.97
2022-10-21T06:57:51.756Z,39.82
2022-10-21T06:58:23.313Z,39.93
2022-10-21T06:58:56.637Z,39.91
2022-10-21T06:59:28.139Z,39.92
2022-10-21T06:59:59.751Z,39.97
2022-10-21T07:01:21.354Z,39.71
2022-10-21T07:02:02.212Z,39.81
2022-10-21T07:02:33.909Z,39.99
2022-10-21T07:03:05.467Z,39.62
2022-10-21T07:03:37.080Z,40.01
2022-10-21T07:04:09.135Z,39.82
2022-10-21T07:04:40.702Z,40.13